createdAt,value
2017-11-23T00:01:58.327Z,9.76
2017-11-23T00:04:25.717Z,9.70
2017-11-23T00:06:53.116Z,9.69
2017-11-23T00:09:20.500Z,9.68
2017-11-23T00:11:48.273Z,9.74
2017-11-23T00:14:15.669Z,9.74
2017-11-23T00:16:43.051Z,9.82
2017-11-23T00:19:10.446Z,9.87
2017-11-23T00:21:37.839Z,9.89
2017-11-23T00:24:05.223Z,9.90
2017-11-23T00:26:32.614Z,9.88
2017-11-23T00:29:00.012Z,9.91
2017-11-23T00:31:27.396Z,9.94
2017-11-23T00:33:54.798Z,9.93
2017-11-23T00:36:22.195Z,9.94
2017-11-23T00:38:49.587Z,10.01
2017-11-23T00:41:16.974Z,10.06
2017-11-23T00:43:44.396Z,10.14
2017-11-23T00:46:11.788Z,10.10
2017-11-23T00:48:39.185Z,10.12
2017-11-23T00:51:06.599Z,10.16
2017-11-23T00:53:33.991Z,10.13
2017-11-23T00:56:01.379Z,10.19
2017-11-23T00:58:28.782Z,10.11
2017-11-23T01:00:56.170Z,10.16
2017-11-23T01:03:23.584Z,10.14
2017-11-23T01:05:50.968Z,10.15
2017-11-23T01:08:18.354Z,10.14
2017-11-23T01:10:45.747Z,10.11
2017-11-23T01:13:13.148Z,10.15
2017-11-23T01:15:40.539Z,10.21
2017-11-23T01:18:07.938Z,10.22
2017-11-23T01:20:35.373Z,10.19
2017-11-23T01:23:02.740Z,10.19
2017-11-23T01:25:30.135Z,10.21
2017-11-23T01:27:57.553Z,10.22
2017-11-23T01:30:24.936Z,10.27
2017-11-23T01:32:52.323Z,10.26
2017-11-23T01:35:19.727Z,10.32
2017-11-23T01:37:47.115Z,10.37
2017-11-23T01:40:14.512Z,10.32
2017-11-23T01:42:41.915Z,10.33
2017-11-23T01:45:09.313Z,10.29
2017-11-23T01:47:36.720Z,10.34
2017-11-23T01:50:04.122Z,10.40
2017-11-23T01:52:31.532Z,10.40
2017-11-23T01:54:58.917Z,10.39
2017-11-23T01:57:26.338Z,10.40
2017-11-23T01:59:53.737Z,10.36
2017-11-23T02:02:21.131Z,10.35
2017-11-23T02:04:48.547Z,10.32
2017-11-23T02:07:15.935Z,10.35
2017-11-23T02:09:43.326Z,10.36
2017-11-23T02:12:10.728Z,10.34
2017-11-23T02:14:38.115Z,10.32
2017-11-23T02:17:05.508Z,10.39
2017-11-23T02:19:32.911Z,10.48
2017-11-23T02:22:00.294Z,10.52
2017-11-23T02:24:27.694Z,10.55
2017-11-23T02:26:55.096Z,10.57
2017-11-23T02:29:22.479Z,10.69
2017-11-23T02:31:49.867Z,10.74
2017-11-23T02:34:17.279Z,10.80
2017-11-23T02:36:44.671Z,10.86
2017-11-23T02:39:12.072Z,10.86
2017-11-23T02:41:39.524Z,10.93
2017-11-23T02:44:06.899Z,11.02
2017-11-23T02:46:34.287Z,11.07
2017-11-23T02:49:01.687Z,11.09
2017-11-23T02:51:29.093Z,11.13
2017-11-23T02:53:56.487Z,11.17
2017-11-23T02:56:23.888Z,11.23
2017-11-23T02:58:51.279Z,11.23
2017-11-23T03:01:18.668Z,11.26
2017-11-23T03:03:46.072Z,11.26
2017-11-23T03:06:13.463Z,11.29
2017-11-23T03:08:40.852Z,11.32
2017-11-23T03:11:08.261Z,11.30
2017-11-23T03:13:35.935Z,11.34
2017-11-23T03:16:03.352Z,11.40
2017-11-23T03:18:30.759Z,11.39
2017-11-23T03:20:58.147Z,11.44
2017-11-23T03:23:25.542Z,11.44
2017-11-23T03:25:52.964Z,11.41
2017-11-23T03:28:20.387Z,11.40
2017-11-23T03:30:47.773Z,11.39
2017-11-23T03:33:15.187Z,11.39
2017-11-23T03:35:42.580Z,11.40
2017-11-23T03:38:09.979Z,11.37
2017-11-23T03:40:37.411Z,11.33
2017-11-23T03:43:04.840Z,11.35
2017-11-23T03:45:32.229Z,11.36
2017-11-23T03:47:59.647Z,11.43
2017-11-23T03:50:27.052Z,11.41
2017-11-23T03:52:54.439Z,11.42
2017-11-23T03:55:21.871Z,11.41
2017-11-23T03:57:49.264Z,11.34
2017-11-23T04:00:16.657Z,11.33
2017-11-23T04:02:44.060Z,11.32
2017-11-23T04:05:11.443Z,11.31
2017-11-23T04:07:38.841Z,11.27
2017-11-23T04:10:06.251Z,11.27
2017-11-23T04:12:33.661Z,11.25
2017-11-23T04:15:01.040Z,11.30
2017-11-23T04:17:28.463Z,11.30
2017-11-23T04:19:55.848Z,11.31
2017-11-23T04:22:23.241Z,11.30
2017-11-23T04:24:50.652Z,11.31
2017-11-23T04:27:18.035Z,11.26
2017-11-23T04:29:45.424Z,11.23
2017-11-23T04:32:12.823Z,11.21
2017-11-23T04:34:40.211Z,11.25
2017-11-23T04:37:07.607Z,11.24
2017-11-23T04:39:35.009Z,11.22
2017-11-23T04:42:02.401Z,11.24
2017-11-23T04:44:29.796Z,11.27
2017-11-23T04:46:57.204Z,11.32
2017-11-23T04:49:24.593Z,11.36
2017-11-23T04:51:51.986Z,11.38
2017-11-23T04:54:19.383Z,11.44
2017-11-23T04:56:46.774Z,11.46
2017-11-23T04:59:14.156Z,11.47
2017-11-23T05:01:41.560Z,11.46
2017-11-23T05:04:08.956Z,11.51
2017-11-23T05:06:36.340Z,11.58
2017-11-23T05:09:03.734Z,11.58
2017-11-23T05:11:31.127Z,11.62
2017-11-23T05:13:58.519Z,11.65
2017-11-23T05:16:25.957Z,11.66
2017-11-23T05:18:53.339Z,11.69
2017-11-23T05:21:20.733Z,11.77
2017-11-23T05:23:48.134Z,11.79
2017-11-23T05:26:15.532Z,11.82
2017-11-23T05:28:42.919Z,11.83
2017-11-23T05:31:10.320Z,11.88
2017-11-23T05:33:37.717Z,11.89
2017-11-23T05:36:05.113Z,11.91
2017-11-23T05:38:32.521Z,11.88
2017-11-23T05:40:59.909Z,11.92
2017-11-23T05:43:27.305Z,11.92
2017-11-23T05:45:54.714Z,11.91
2017-11-23T05:48:22.165Z,11.89
2017-11-23T05:50:49.564Z,11.91
2017-11-23T05:53:16.978Z,11.91
2017-11-23T05:55:44.382Z,11.92
2017-11-23T05:58:11.775Z,11.91
2017-11-23T06:00:40.378Z,11.93
2017-11-23T06:03:07.780Z,11.93
2017-11-23T06:05:35.176Z,11.93
2017-11-23T06:08:02.596Z,11.98
2017-11-23T06:10:29.988Z,12.02
2017-11-23T06:12:57.384Z,12.08
2017-11-23T06:15:24.792Z,12.13
2017-11-23T06:17:52.179Z,12.17
2017-11-23T06:20:19.578Z,12.26
2017-11-23T06:22:46.997Z,12.34
2017-11-23T06:25:14.377Z,12.42
2017-11-23T06:27:41.764Z,12.43
2017-11-23T06:30:09.168Z,12.50
2017-11-23T06:32:36.556Z,12.54
2017-11-23T06:35:03.952Z,12.56
2017-11-23T06:37:31.348Z,12.63
2017-11-23T06:39:58.735Z,12.68
2017-11-23T06:42:26.134Z,12.70
2017-11-23T06:44:53.539Z,12.73
2017-11-23T06:47:20.919Z,12.80
2017-11-23T06:49:48.316Z,12.84
2017-11-23T06:52:15.742Z,12.90
2017-11-23T06:54:43.141Z,12.95
2017-11-23T06:57:10.538Z,13.01
2017-11-23T06:59:37.933Z,13.04
2017-11-23T07:02:06.031Z,13.06
2017-11-23T07:04:33.428Z,13.10
2017-11-23T07:07:00.925Z,13.08
2017-11-23T07:09:28.331Z,13.13
2017-11-23T07:11:55.735Z,13.18
2017-11-23T07:14:23.140Z,13.17
2017-11-23T07:16:50.536Z,13.20
2017-11-23T07:19:17.921Z,13.21
2017-11-23T07:21:45.324Z,13.21
2017-11-23T07:24:12.722Z,13.21
2017-11-23T07:26:40.127Z,13.19
2017-11-23T07:29:07.527Z,13.22
2017-11-23T07:31:34.915Z,13.21
2017-11-23T07:34:02.307Z,13.24
2017-11-23T07:36:29.707Z,13.23
2017-11-23T07:38:57.099Z,13.28
2017-11-23T07:41:24.492Z,13.27
2017-11-23T07:43:52.614Z,13.28
2017-11-23T07:46:19.999Z,13.25
2017-11-23T07:48:47.460Z,13.26
2017-11-23T07:51:14.880Z,13.31
2017-11-23T07:53:48.083Z,13.26
2017-11-23T07:56:15.483Z,13.25
2017-11-23T07:58:42.929Z,13.27
2017-11-23T08:01:10.319Z,13.30
2017-11-23T08:03:37.723Z,13.30
2017-11-23T08:06:05.118Z,13.38
2017-11-23T08:08:33.107Z,13.38
2017-11-23T08:11:00.517Z,13.36
2017-11-23T08:13:28.244Z,13.32
2017-11-23T08:15:55.688Z,13.25
2017-11-23T08:18:23.372Z,13.21
2017-11-23T08:20:50.779Z,13.18
2017-11-23T08:23:18.192Z,13.21
2017-11-23T08:25:45.647Z,13.25
2017-11-23T08:28:13.047Z,13.22
2017-11-23T08:30:40.440Z,13.16
2017-11-23T08:33:07.896Z,13.09
2017-11-23T08:35:35.311Z,12.97
2017-11-23T08:38:02.711Z,13.00
2017-11-23T08:40:30.251Z,13.08
2017-11-23T08:42:57.659Z,13.26
2017-11-23T08:45:25.063Z,13.40
2017-11-23T08:47:52.472Z,13.53
2017-11-23T08:50:19.864Z,13.75
2017-11-23T08:52:48.316Z,13.89
2017-11-23T08:55:15.716Z,13.87
2017-11-23T08:57:43.156Z,13.91
2017-11-23T09:00:10.545Z,13.88
2017-11-23T09:02:37.959Z,13.89
2017-11-23T09:05:06.271Z,13.87
2017-11-23T09:07:33.665Z,13.88
2017-11-23T09:10:02.349Z,13.92
2017-11-23T09:12:30.653Z,13.96
2017-11-23T09:14:58.840Z,13.99
2017-11-23T09:17:26.255Z,14.03
2017-11-23T09:19:53.641Z,14.06
2017-11-23T09:22:21.040Z,14.16
2017-11-23T09:24:48.451Z,14.23
2017-11-23T09:27:15.842Z,14.29
2017-11-23T09:29:43.223Z,14.38
2017-11-23T09:32:10.632Z,14.40
2017-11-23T09:34:38.017Z,14.52
2017-11-23T09:37:05.395Z,14.63
2017-11-23T09:39:32.884Z,14.77
2017-11-23T09:42:00.271Z,14.86
2017-11-23T09:44:27.654Z,14.91
2017-11-23T09:46:55.053Z,14.97
2017-11-23T09:49:22.449Z,15.09
2017-11-23T09:51:49.827Z,15.16
2017-11-23T09:54:17.235Z,15.23
2017-11-23T09:56:44.623Z,15.33
2017-11-23T09:59:12.005Z,15.33
2017-11-23T10:01:39.420Z,15.44
2017-11-23T10:04:06.807Z,15.38
2017-11-23T10:06:34.189Z,15.46
2017-11-23T10:09:01.597Z,15.53
2017-11-23T10:11:28.980Z,15.52
2017-11-23T10:13:56.367Z,15.50
2017-11-23T10:16:23.759Z,15.60
2017-11-23T10:18:51.146Z,15.58
2017-11-23T10:21:18.632Z,15.54
2017-11-23T10:23:46.024Z,15.54
2017-11-23T10:26:13.405Z,15.60
2017-11-23T10:28:40.819Z,15.52
2017-11-23T10:31:08.228Z,15.55
2017-11-23T10:33:36.801Z,15.58
2017-11-23T10:36:04.167Z,15.52
2017-11-23T10:38:31.647Z,15.43
2017-11-23T10:40:59.027Z,15.51
2017-11-23T10:43:26.415Z,15.42
2017-11-23T10:45:53.829Z,15.44
2017-11-23T10:48:31.319Z,15.45
2017-11-23T10:50:58.721Z,15.44
2017-11-23T10:53:26.378Z,15.40
2017-11-23T10:55:53.755Z,15.43
2017-11-23T10:58:21.168Z,15.48
2017-11-23T11:00:48.563Z,15.47
2017-11-23T11:03:15.944Z,15.47
2017-11-23T11:05:43.372Z,15.53
2017-11-23T11:08:10.765Z,15.55
2017-11-23T11:10:38.143Z,15.44
2017-11-23T11:13:05.535Z,15.33
2017-11-23T11:15:32.977Z,15.23
2017-11-23T11:18:00.394Z,15.11
2017-11-23T11:20:27.787Z,15.06
2017-11-23T11:22:55.422Z,15.07
2017-11-23T11:25:22.784Z,15.06
2017-11-23T11:27:50.179Z,15.16
2017-11-23T11:30:17.580Z,15.19
2017-11-23T11:32:44.959Z,15.21
2017-11-23T11:35:12.352Z,15.25
2017-11-23T11:37:39.741Z,15.25
2017-11-23T11:40:07.136Z,15.34
2017-11-23T11:42:34.535Z,15.43
2017-11-23T11:45:01.911Z,15.51
2017-11-23T11:47:29.296Z,15.54
2017-11-23T11:49:56.735Z,15.55
2017-11-23T11:52:24.119Z,15.48
2017-11-23T11:54:51.508Z,15.46
2017-11-23T11:57:18.906Z,15.64
2017-11-23T11:59:46.287Z,15.75
2017-11-23T12:02:13.654Z,15.77
2017-11-23T12:04:41.071Z,15.82
2017-11-23T12:07:08.468Z,15.86
2017-11-23T12:09:35.887Z,15.83
2017-11-23T12:12:03.590Z,15.84
2017-11-23T12:14:30.987Z,15.86
2017-11-23T12:20:08.797Z,15.73
2017-11-23T12:22:43.060Z,15.83
2017-11-23T12:25:10.457Z,15.83
2017-11-23T12:27:50.307Z,15.78
2017-11-23T12:30:17.704Z,15.82
2017-11-23T12:32:45.123Z,15.83
2017-11-23T12:35:12.591Z,15.80
2017-11-23T12:37:39.983Z,15.76
2017-11-23T12:40:07.392Z,15.74
2017-11-23T12:42:34.889Z,15.94
2017-11-23T12:45:02.273Z,15.99
2017-11-23T12:47:29.673Z,16.02
2017-11-23T12:49:57.058Z,16.05
2017-11-23T12:52:25.023Z,16.03
2017-11-23T12:54:52.426Z,15.99
2017-11-23T12:57:19.837Z,16.06
2017-11-23T12:59:47.211Z,16.14
2017-11-23T13:02:14.609Z,16.19
2017-11-23T13:04:42.041Z,16.22
2017-11-23T13:07:09.473Z,16.26
2017-11-23T13:09:36.884Z,16.35
2017-11-23T13:12:04.332Z,16.51
2017-11-23T13:14:31.729Z,16.84
2017-11-23T13:16:59.107Z,17.19
2017-11-23T13:19:26.519Z,17.37
2017-11-23T13:21:53.899Z,17.45
2017-11-23T13:24:21.321Z,17.42
2017-11-23T13:26:48.776Z,17.52
2017-11-23T13:29:16.307Z,17.49
2017-11-23T13:31:43.717Z,17.42
2017-11-23T13:34:11.112Z,17.26
2017-11-23T13:36:38.500Z,17.16
2017-11-23T13:39:05.920Z,16.89
2017-11-23T13:41:33.502Z,16.93
2017-11-23T13:44:00.874Z,16.97
2017-11-23T13:46:28.880Z,16.80
2017-11-23T13:48:56.268Z,16.77
2017-11-23T13:51:23.661Z,16.76
2017-11-23T13:53:51.064Z,16.65
2017-11-23T13:56:18.492Z,16.66
2017-11-23T13:58:45.875Z,16.59
2017-11-23T14:01:13.288Z,16.55
2017-11-23T14:03:40.781Z,16.57
2017-11-23T14:06:08.160Z,16.58
2017-11-23T14:08:35.628Z,16.52
2017-11-23T14:11:03.036Z,16.43
2017-11-23T14:13:30.449Z,16.48
2017-11-23T14:15:57.851Z,16.46
2017-11-23T14:18:25.273Z,16.41
2017-11-23T14:20:52.638Z,16.45
2017-11-23T14:23:20.034Z,16.42
2017-11-23T14:25:47.414Z,16.45
2017-11-23T14:28:14.855Z,16.41
2017-11-23T14:30:42.228Z,16.45
2017-11-23T14:33:09.629Z,16.43
2017-11-23T14:35:37.028Z,16.45
2017-11-23T14:38:04.428Z,16.40
2017-11-23T14:40:31.881Z,16.41
2017-11-23T14:42:59.302Z,16.42
2017-11-23T14:45:26.704Z,16.41
2017-11-23T14:47:54.107Z,16.39
2017-11-23T14:50:21.517Z,16.46
2017-11-23T14:52:48.931Z,16.44
2017-11-23T14:55:16.329Z,16.43
2017-11-23T14:57:43.727Z,16.39
2017-11-23T15:00:11.151Z,16.39
2017-11-23T15:02:38.567Z,16.43
2017-11-23T15:05:05.956Z,16.39
2017-11-23T15:07:33.344Z,16.44
2017-11-23T15:10:00.743Z,16.42
2017-11-23T15:12:28.168Z,16.39
2017-11-23T15:14:55.571Z,16.38
2017-11-23T15:17:23.024Z,16.40
2017-11-23T15:19:50.411Z,16.34
2017-11-23T15:22:17.805Z,16.36
2017-11-23T15:24:45.241Z,16.35
2017-11-23T15:27:12.622Z,16.36
2017-11-23T15:29:40.745Z,16.33
2017-11-23T15:32:08.184Z,16.24
2017-11-23T15:34:35.608Z,16.21
2017-11-23T15:37:03.651Z,16.20
2017-11-23T15:39:31.096Z,16.23
2017-11-23T15:41:58.480Z,16.22
2017-11-23T15:44:25.872Z,16.16
2017-11-23T15:46:53.720Z,16.10
2017-11-23T15:49:21.147Z,16.05
2017-11-23T15:51:48.540Z,16.04
2017-11-23T15:54:15.973Z,16.04
2017-11-23T15:56:43.468Z,15.90
2017-11-23T15:59:11.662Z,15.81
2017-11-23T16:01:39.063Z,15.85
2017-11-23T16:04:06.460Z,15.74
2017-11-23T16:06:33.862Z,15.69
2017-11-23T16:09:01.864Z,15.63
2017-11-23T16:11:29.257Z,15.58
2017-11-23T16:13:56.632Z,15.55
2017-11-23T16:16:24.028Z,15.49
2017-11-23T16:18:51.431Z,15.49
2017-11-23T16:21:18.811Z,15.47
2017-11-23T16:23:46.252Z,15.58
2017-11-23T16:26:13.658Z,15.55
2017-11-23T16:28:41.043Z,15.38
2017-11-23T16:31:08.475Z,14.89
2017-11-23T16:33:35.896Z,14.44
2017-11-23T16:36:03.275Z,14.30
2017-11-23T16:38:30.691Z,14.12
2017-11-23T16:41:08.656Z,14.03
2017-11-23T16:43:36.107Z,13.94
2017-11-23T16:46:09.017Z,13.90
2017-11-23T16:48:38.354Z,13.87
2017-11-23T16:51:11.291Z,13.83
2017-11-23T16:56:52.569Z,13.83
2017-11-23T16:59:19.979Z,13.82
2017-11-23T17:01:53.016Z,13.83
2017-11-23T17:04:26.024Z,13.82
2017-11-23T17:10:01.509Z,13.79
2017-11-23T17:12:34.567Z,13.76
2017-11-23T17:15:08.524Z,13.64
2017-11-23T17:17:39.392Z,13.70
2017-11-23T17:20:06.771Z,13.68
2017-11-23T17:22:34.187Z,13.72
2017-11-23T17:25:01.585Z,13.64
2017-11-23T17:27:28.970Z,13.65
2017-11-23T17:29:56.414Z,13.67
2017-11-23T17:32:23.802Z,13.68
2017-11-23T17:34:51.933Z,13.60
2017-11-23T17:37:19.348Z,13.59
2017-11-23T17:39:46.736Z,13.49
2017-11-23T17:42:14.170Z,13.45
2017-11-23T17:44:41.591Z,13.49
2017-11-23T17:47:08.984Z,13.47
2017-11-23T17:49:36.378Z,13.49
2017-11-23T17:52:03.785Z,13.47
2017-11-23T17:54:31.255Z,13.47
2017-11-23T17:56:58.672Z,13.50
2017-11-23T17:59:27.008Z,13.47
2017-11-23T18:01:54.388Z,13.49
2017-11-23T18:04:21.780Z,13.45
2017-11-23T18:06:49.175Z,13.46
2017-11-23T18:09:16.562Z,13.47
2017-11-23T18:11:43.999Z,13.52
2017-11-23T18:14:11.406Z,13.48
2017-11-23T18:16:39.156Z,13.48
2017-11-23T18:19:06.608Z,13.42
2017-11-23T18:21:34.005Z,13.38
2017-11-23T18:24:01.404Z,13.39
2017-11-23T18:26:28.788Z,13.40
2017-11-23T18:28:56.184Z,13.36
2017-11-23T18:31:23.588Z,13.39
2017-11-23T18:33:50.986Z,13.36
2017-11-23T18:36:18.411Z,13.39
2017-11-23T18:38:45.799Z,13.38
2017-11-23T18:41:13.221Z,13.40
2017-11-23T18:43:40.624Z,13.39
2017-11-23T18:46:08.027Z,13.43
2017-11-23T18:48:35.421Z,13.44
2017-11-23T18:51:02.851Z,13.35
2017-11-23T18:53:30.264Z,13.37
2017-11-23T18:55:57.639Z,13.34
2017-11-23T18:58:25.068Z,13.31
2017-11-23T19:00:52.459Z,13.26
2017-11-23T19:03:19.923Z,13.32
2017-11-23T19:05:48.328Z,13.36
2017-11-23T19:08:16.463Z,13.29
2017-11-23T19:10:43.843Z,13.18
2017-11-23T19:13:11.268Z,13.31
2017-11-23T19:15:38.671Z,13.27
2017-11-23T19:18:06.203Z,13.32
2017-11-23T19:20:33.610Z,13.34
2017-11-23T19:23:01.008Z,13.33
2017-11-23T19:25:29.132Z,13.35
2017-11-23T19:27:56.535Z,13.31
2017-11-23T19:30:23.935Z,13.32
2017-11-23T19:32:51.333Z,13.23
2017-11-23T19:35:18.744Z,13.27
2017-11-23T19:37:46.147Z,13.28
2017-11-23T19:40:13.540Z,13.28
2017-11-23T19:42:40.935Z,13.26
2017-11-23T19:45:08.335Z,13.26
2017-11-23T19:47:35.727Z,13.20
2017-11-23T19:50:03.138Z,13.18
2017-11-23T19:52:31.534Z,13.15
2017-11-23T19:54:58.927Z,12.99
2017-11-23T19:57:26.332Z,12.88
2017-11-23T19:59:53.722Z,12.86
2017-11-23T20:02:21.123Z,12.86
2017-11-23T20:04:48.529Z,12.87
2017-11-23T20:07:15.930Z,12.88
2017-11-23T20:09:43.319Z,12.94
2017-11-23T20:12:10.723Z,12.91
2017-11-23T20:14:38.120Z,12.89
2017-11-23T20:17:05.912Z,12.84
2017-11-23T20:19:33.319Z,12.80
2017-11-23T20:22:00.708Z,12.82
2017-11-23T20:24:28.112Z,12.83
2017-11-23T20:26:55.519Z,12.86
2017-11-23T20:29:22.916Z,12.85
2017-11-23T20:31:50.317Z,12.84
2017-11-23T20:34:17.710Z,12.80
2017-11-23T20:36:45.097Z,12.76
2017-11-23T20:39:12.493Z,12.80
2017-11-23T20:41:39.910Z,12.83
2017-11-23T20:44:07.307Z,12.79
2017-11-23T20:46:34.705Z,12.75
2017-11-23T20:49:02.128Z,12.76
2017-11-23T20:51:29.551Z,12.74
2017-11-23T20:53:56.941Z,12.72
2017-11-23T20:56:24.440Z,12.73
2017-11-23T20:58:51.843Z,12.73
2017-11-23T21:01:19.224Z,12.71
2017-11-23T21:03:46.651Z,12.64
2017-11-23T21:06:14.055Z,12.61
2017-11-23T21:08:41.447Z,12.59
2017-11-23T21:11:08.894Z,12.56
2017-11-23T21:13:36.288Z,12.57
2017-11-23T21:16:03.676Z,12.53
2017-11-23T21:18:31.105Z,12.56
2017-11-23T21:20:58.587Z,12.52
2017-11-23T21:23:25.992Z,12.54
2017-11-23T21:25:53.400Z,12.54
2017-11-23T21:28:20.795Z,12.56
2017-11-23T21:30:48.202Z,12.56
2017-11-23T21:33:15.623Z,12.53
2017-11-23T21:35:43.108Z,12.49
2017-11-23T21:38:10.516Z,12.46
2017-11-23T21:40:37.931Z,12.45
2017-11-23T21:43:05.347Z,12.45
2017-11-23T21:45:32.740Z,12.42
2017-11-23T21:48:00.135Z,12.44
2017-11-23T21:50:27.540Z,12.41
2017-11-23T21:52:54.930Z,12.37
2017-11-23T21:55:22.331Z,12.39
2017-11-23T21:57:49.723Z,12.40
2017-11-23T22:00:17.116Z,12.34
2017-11-23T22:02:44.514Z,12.33
2017-11-23T22:05:11.903Z,12.33
2017-11-23T22:07:39.299Z,12.27
2017-11-23T22:10:06.708Z,12.25
2017-11-23T22:12:34.093Z,12.22
2017-11-23T22:15:01.484Z,12.19
2017-11-23T22:17:28.899Z,12.18
2017-11-23T22:19:56.294Z,12.18
2017-11-23T22:22:23.684Z,12.19
2017-11-23T22:24:51.103Z,12.18
2017-11-23T22:27:18.501Z,12.18
2017-11-23T22:29:45.900Z,12.17
2017-11-23T22:32:13.287Z,12.15
2017-11-23T22:34:40.687Z,12.17
2017-11-23T22:37:08.087Z,12.19
2017-11-23T22:39:35.481Z,12.17
2017-11-23T22:42:02.874Z,12.19
2017-11-23T22:44:30.287Z,12.19
2017-11-23T22:46:57.696Z,12.14
2017-11-23T22:49:25.084Z,12.15
2017-11-23T22:51:52.485Z,12.19
2017-11-23T22:54:19.887Z,12.15
2017-11-23T22:56:47.279Z,12.14
2017-11-23T22:59:14.675Z,12.11
2017-11-23T23:01:42.078Z,12.10
2017-11-23T23:04:09.463Z,12.09
2017-11-23T23:06:36.856Z,12.12
2017-11-23T23:09:04.260Z,12.13
2017-11-23T23:11:31.653Z,12.15
2017-11-23T23:13:59.105Z,12.15
2017-11-23T23:16:26.534Z,12.14
2017-11-23T23:18:54.014Z,12.14
2017-11-23T23:21:21.397Z,12.13
2017-11-23T23:23:48.812Z,12.09
2017-11-23T23:26:16.211Z,12.04
2017-11-23T23:28:43.613Z,11.90
2017-11-23T23:31:11.007Z,11.80
2017-11-23T23:33:38.428Z,11.76
2017-11-23T23:36:05.819Z,11.79
2017-11-23T23:38:33.223Z,11.79
2017-11-23T23:41:00.616Z,11.76
2017-11-23T23:43:28.033Z,11.83
2017-11-23T23:45:55.452Z,11.82
2017-11-23T23:48:22.847Z,11.85
2017-11-23T23:50:50.259Z,11.88
2017-11-23T23:53:17.654Z,11.92
2017-11-23T23:55:45.059Z,11.93
2017-11-23T23:58:12.455Z,11.94
